sensor_id;sensor_type;location;lat;lon;timestamp;P1;durP1;ratioP1;P2;durP2;ratioP2
38427;SDS011;24211;49.980;19.776;2023-07-28T00:00:10;5.05;;;2.30;;
38427;SDS011;24211;49.980;19.776;2023-07-28T00:03:00;5.53;;;2.42;;
38427;SDS011;24211;49.980;19.776;2023-07-28T00:05:34;4.20;;;2.15;;
38427;SDS011;24211;49.980;19.776;2023-07-28T00:08:03;4.80;;;2.40;;
38427;SDS011;24211;49.980;19.776;2023-07-28T00:10:31;5.82;;;2.20;;
38427;SDS011;24211;49.980;19.776;2023-07-28T00:12:58;5.88;;;2.35;;
38427;SDS011;24211;49.980;19.776;2023-07-28T00:15:26;3.72;;;1.85;;
38427;SDS011;24211;49.980;19.776;2023-07-28T00:20:30;4.55;;;2.10;;
38427;SDS011;24211;49.980;19.776;2023-07-28T00:22:58;4.15;;;2.00;;
38427;SDS011;24211;49.980;19.776;2023-07-28T00:25:25;4.30;;;2.10;;
38427;SDS011;24211;49.980;19.776;2023-07-28T00:27:55;4.50;;;2.20;;
38427;SDS011;24211;49.980;19.776;2023-07-28T00:30:22;4.38;;;1.90;;
38427;SDS011;24211;49.980;19.776;2023-07-28T00:32:50;4.80;;;2.25;;
38427;SDS011;24211;49.980;19.776;2023-07-28T00:35:17;4.68;;;2.20;;
38427;SDS011;24211;49.980;19.776;2023-07-28T00:37:46;4.43;;;2.00;;
38427;SDS011;24211;49.980;19.776;2023-07-28T00:40:14;4.13;;;2.00;;
38427;SDS011;24211;49.980;19.776;2023-07-28T00:42:45;4.07;;;1.80;;
38427;SDS011;24211;49.980;19.776;2023-07-28T00:45:12;4.30;;;1.98;;
38427;SDS011;24211;49.980;19.776;2023-07-28T00:47:40;4.43;;;2.00;;
38427;SDS011;24211;49.980;19.776;2023-07-28T00:50:16;3.83;;;1.77;;
38427;SDS011;24211;49.980;19.776;2023-07-28T00:52:44;4.78;;;2.00;;
38427;SDS011;24211;49.980;19.776;2023-07-28T00:55:14;3.72;;;1.75;;
38427;SDS011;24211;49.980;19.776;2023-07-28T00:57:43;4.00;;;2.00;;
38427;SDS011;24211;49.980;19.776;2023-07-28T01:00:12;3.47;;;1.80;;
38427;SDS011;24211;49.980;19.776;2023-07-28T01:02:44;3.95;;;1.83;;
38427;SDS011;24211;49.980;19.776;2023-07-28T01:05:12;3.83;;;1.75;;
38427;SDS011;24211;49.980;19.776;2023-07-28T01:10:35;3.80;;;2.00;;
38427;SDS011;24211;49.980;19.776;2023-07-28T01:13:05;3.97;;;1.70;;
38427;SDS011;24211;49.980;19.776;2023-07-28T01:15:32;4.65;;;1.77;;
38427;SDS011;24211;49.980;19.776;2023-07-28T01:18:02;3.97;;;1.77;;
38427;SDS011;24211;49.980;19.776;2023-07-28T01:20:29;3.53;;;1.80;;
38427;SDS011;24211;49.980;19.776;2023-07-28T01:23:18;3.38;;;1.75;;
38427;SDS011;24211;49.980;19.776;2023-07-28T01:25:55;3.22;;;1.80;;
38427;SDS011;24211;49.980;19.776;2023-07-28T01:28:35;3.65;;;1.60;;
38427;SDS011;24211;49.980;19.776;2023-07-28T01:31:06;3.45;;;1.60;;
38427;SDS011;24211;49.980;19.776;2023-07-28T01:33:39;3.53;;;1.70;;
38427;SDS011;24211;49.980;19.776;2023-07-28T01:36:11;3.35;;;1.58;;
38427;SDS011;24211;49.980;19.776;2023-07-28T01:38:38;4.05;;;1.70;;
38427;SDS011;24211;49.980;19.776;2023-07-28T01:41:06;2.60;;;1.40;;
38427;SDS011;24211;49.980;19.776;2023-07-28T01:43:33;3.25;;;1.60;;
38427;SDS011;24211;49.980;19.776;2023-07-28T01:46:01;3.00;;;1.33;;
38427;SDS011;24211;49.980;19.776;2023-07-28T01:48:32;2.75;;;1.50;;
38427;SDS011;24211;49.980;19.776;2023-07-28T01:50:59;2.63;;;1.25;;
38427;SDS011;24211;49.980;19.776;2023-07-28T01:53:27;4.45;;;1.58;;
38427;SDS011;24211;49.980;19.776;2023-07-28T01:55:54;2.30;;;1.27;;
38427;SDS011;24211;49.980;19.776;2023-07-28T01:58:26;2.42;;;1.30;;
38427;SDS011;24211;49.980;19.776;2023-07-28T02:00:54;2.75;;;1.30;;
38427;SDS011;24211;49.980;19.776;2023-07-28T02:03:21;2.33;;;1.30;;
38427;SDS011;24211;49.980;19.776;2023-07-28T02:05:50;2.53;;;1.40;;
38427;SDS011;24211;49.980;19.776;2023-07-28T02:08:19;2.88;;;1.38;;
38427;SDS011;24211;49.980;19.776;2023-07-28T02:10:47;2.05;;;1.30;;
38427;SDS011;24211;49.980;19.776;2023-07-28T02:13:15;4.03;;;1.40;;
38427;SDS011;24211;49.980;19.776;2023-07-28T02:15:42;2.72;;;1.30;;
38427;SDS011;24211;49.980;19.776;2023-07-28T02:18:11;3.00;;;1.40;;
38427;SDS011;24211;49.980;19.776;2023-07-28T02:20:41;3.70;;;1.42;;
38427;SDS011;24211;49.980;19.776;2023-07-28T02:23:09;3.63;;;1.17;;
38427;SDS011;24211;49.980;19.776;2023-07-28T02:25:38;3.28;;;1.10;;
38427;SDS011;24211;49.980;19.776;2023-07-28T02:28:11;2.33;;;1.10;;
38427;SDS011;24211;49.980;19.776;2023-07-28T02:30:39;2.88;;;1.20;;
38427;SDS011;24211;49.980;19.776;2023-07-28T02:33:06;2.38;;;1.20;;
38427;SDS011;24211;49.980;19.776;2023-07-28T02:35:39;2.17;;;1.20;;
38427;SDS011;24211;49.980;19.776;2023-07-28T02:38:10;2.45;;;1.30;;
38427;SDS011;24211;49.980;19.776;2023-07-28T02:40:37;2.60;;;1.20;;
38427;SDS011;24211;49.980;19.776;2023-07-28T02:43:11;2.78;;;1.30;;
38427;SDS011;24211;49.980;19.776;2023-07-28T02:45:38;2.30;;;1.20;;
38427;SDS011;24211;49.980;19.776;2023-07-28T02:48:15;2.30;;;1.20;;
38427;SDS011;24211;49.980;19.776;2023-07-28T02:50:46;2.92;;;1.40;;
38427;SDS011;24211;49.980;19.776;2023-07-28T02:53:16;2.47;;;1.27;;
38427;SDS011;24211;49.980;19.776;2023-07-28T02:55:45;2.83;;;1.25;;
38427;SDS011;24211;49.980;19.776;2023-07-28T02:58:14;3.17;;;1.20;;
38427;SDS011;24211;49.980;19.776;2023-07-28T03:00:43;2.10;;;1.10;;
38427;SDS011;24211;49.980;19.776;2023-07-28T03:03:19;2.05;;;1.05;;
38427;SDS011;24211;49.980;19.776;2023-07-28T03:05:47;1.98;;;1.05;;
38427;SDS011;24211;49.980;19.776;2023-07-28T03:08:25;2.40;;;1.00;;
38427;SDS011;24211;49.980;19.776;2023-07-28T03:11:04;2.35;;;1.23;;
38427;SDS011;24211;49.980;19.776;2023-07-28T03:13:31;3.45;;;1.10;;
38427;SDS011;24211;49.980;19.776;2023-07-28T03:15:59;2.28;;;1.10;;
38427;SDS011;24211;49.980;19.776;2023-07-28T03:18:33;2.17;;;1.00;;
38427;SDS011;24211;49.980;19.776;2023-07-28T03:21:00;2.28;;;1.02;;
38427;SDS011;24211;49.980;19.776;2023-07-28T03:23:28;2.53;;;1.27;;
38427;SDS011;24211;49.980;19.776;2023-07-28T03:26:07;2.13;;;1.10;;
38427;SDS011;24211;49.980;19.776;2023-07-28T03:28:34;2.65;;;1.13;;
38427;SDS011;24211;49.980;19.776;2023-07-28T03:31:02;2.00;;;1.02;;
38427;SDS011;24211;49.980;19.776;2023-07-28T03:33:29;2.75;;;1.10;;
38427;SDS011;24211;49.980;19.776;2023-07-28T03:35:57;2.15;;;1.00;;
38427;SDS011;24211;49.980;19.776;2023-07-28T03:38:24;2.22;;;1.10;;
38427;SDS011;24211;49.980;19.776;2023-07-28T03:40:51;2.20;;;1.10;;
38427;SDS011;24211;49.980;19.776;2023-07-28T03:43:20;2.72;;;1.10;;
38427;SDS011;24211;49.980;19.776;2023-07-28T03:45:55;3.15;;;1.25;;
38427;SDS011;24211;49.980;19.776;2023-07-28T03:48:22;1.70;;;1.00;;
38427;SDS011;24211;49.980;19.776;2023-07-28T03:50:50;2.72;;;1.30;;
38427;SDS011;24211;49.980;19.776;2023-07-28T03:53:25;2.25;;;1.20;;
38427;SDS011;24211;49.980;19.776;2023-07-28T03:55:52;3.05;;;1.13;;
38427;SDS011;24211;49.980;19.776;2023-07-28T03:58:25;2.83;;;1.35;;
38427;SDS011;24211;49.980;19.776;2023-07-28T04:00:59;2.22;;;1.10;;
38427;SDS011;24211;49.980;19.776;2023-07-28T04:03:26;2.10;;;1.10;;
38427;SDS011;24211;49.980;19.776;2023-07-28T04:05:59;2.33;;;1.20;;
38427;SDS011;24211;49.980;19.776;2023-07-28T04:08:26;3.25;;;1.30;;
38427;SDS011;24211;49.980;19.776;2023-07-28T04:11:02;2.50;;;1.20;;
38427;SDS011;24211;49.980;19.776;2023-07-28T04:13:30;3.28;;;1.40;;
38427;SDS011;24211;49.980;19.776;2023-07-28T04:15:57;2.33;;;1.13;;
38427;SDS011;24211;49.980;19.776;2023-07-28T04:18:35;2.22;;;1.10;;
38427;SDS011;24211;49.980;19.776;2023-07-28T04:21:02;2.13;;;1.10;;
38427;SDS011;24211;49.980;19.776;2023-07-28T04:23:32;4.90;;;1.25;;
38427;SDS011;24211;49.980;19.776;2023-07-28T04:26:00;2.13;;;1.00;;
38427;SDS011;24211;49.980;19.776;2023-07-28T04:28:29;2.95;;;1.20;;
38427;SDS011;24211;49.980;19.776;2023-07-28T04:31:02;2.65;;;1.20;;
38427;SDS011;24211;49.980;19.776;2023-07-28T04:33:49;2.60;;;1.20;;
38427;SDS011;24211;49.980;19.776;2023-07-28T04:36:17;2.85;;;1.20;;
38427;SDS011;24211;49.980;19.776;2023-07-28T04:38:44;3.08;;;1.23;;
38427;SDS011;24211;49.980;19.776;2023-07-28T04:41:12;2.40;;;1.20;;
38427;SDS011;24211;49.980;19.776;2023-07-28T04:43:51;2.95;;;1.20;;
38427;SDS011;24211;49.980;19.776;2023-07-28T04:46:20;2.17;;;1.20;;
38427;SDS011;24211;49.980;19.776;2023-07-28T04:48:53;1.98;;;1.10;;
38427;SDS011;24211;49.980;19.776;2023-07-28T04:51:45;2.30;;;1.20;;
38427;SDS011;24211;49.980;19.776;2023-07-28T04:54:20;2.88;;;1.30;;
38427;SDS011;24211;49.980;19.776;2023-07-28T04:56:47;2.38;;;1.08;;
38427;SDS011;24211;49.980;19.776;2023-07-28T04:59:26;2.05;;;1.05;;
38427;SDS011;24211;49.980;19.776;2023-07-28T05:01:59;2.85;;;1.20;;
38427;SDS011;24211;49.980;19.776;2023-07-28T05:04:28;2.33;;;1.20;;
38427;SDS011;24211;49.980;19.776;2023-07-28T05:06:58;2.13;;;1.10;;
38427;SDS011;24211;49.980;19.776;2023-07-28T05:09:35;2.70;;;1.15;;
38427;SDS011;24211;49.980;19.776;2023-07-28T05:12:02;1.63;;;0.98;;
38427;SDS011;24211;49.980;19.776;2023-07-28T05:14:37;2.28;;;1.10;;
38427;SDS011;24211;49.980;19.776;2023-07-28T05:17:08;2.13;;;1.10;;
38427;SDS011;24211;49.980;19.776;2023-07-28T05:20:15;2.80;;;1.20;;
38427;SDS011;24211;49.980;19.776;2023-07-28T05:22:53;2.15;;;1.17;;
38427;SDS011;24211;49.980;19.776;2023-07-28T05:25:23;2.00;;;1.00;;
38427;SDS011;24211;49.980;19.776;2023-07-28T05:27:56;3.00;;;1.08;;
38427;SDS011;24211;49.980;19.776;2023-07-28T05:30:25;2.80;;;1.10;;
38427;SDS011;24211;49.980;19.776;2023-07-28T05:32:57;1.92;;;1.00;;
38427;SDS011;24211;49.980;19.776;2023-07-28T05:35:47;2.45;;;1.10;;
38427;SDS011;24211;49.980;19.776;2023-07-28T05:38:25;2.25;;;1.00;;
38427;SDS011;24211;49.980;19.776;2023-07-28T05:41:17;3.13;;;1.08;;
38427;SDS011;24211;49.980;19.776;2023-07-28T05:43:45;1.92;;;1.13;;
38427;SDS011;24211;49.980;19.776;2023-07-28T05:46:17;2.22;;;1.02;;
38427;SDS011;24211;49.980;19.776;2023-07-28T05:48:46;2.45;;;1.02;;
38427;SDS011;24211;49.980;19.776;2023-07-28T05:51:13;2.30;;;1.00;;
38427;SDS011;24211;49.980;19.776;2023-07-28T05:53:40;1.60;;;0.90;;
38427;SDS011;24211;49.980;19.776;2023-07-28T05:56:10;1.48;;;0.77;;
38427;SDS011;24211;49.980;19.776;2023-07-28T05:58:38;2.42;;;1.08;;
38427;SDS011;24211;49.980;19.776;2023-07-28T06:01:05;2.25;;;1.23;;
38427;SDS011;24211;49.980;19.776;2023-07-28T06:04:11;1.83;;;1.10;;
38427;SDS011;24211;49.980;19.776;2023-07-28T06:06:49;2.03;;;1.10;;
38427;SDS011;24211;49.980;19.776;2023-07-28T06:09:17;2.40;;;1.20;;
38427;SDS011;24211;49.980;19.776;2023-07-28T06:11:45;3.08;;;1.10;;
38427;SDS011;24211;49.980;19.776;2023-07-28T06:14:14;2.00;;;1.02;;
38427;SDS011;24211;49.980;19.776;2023-07-28T06:16:41;2.05;;;1.00;;
38427;SDS011;24211;49.980;19.776;2023-07-28T06:19:08;3.08;;;1.20;;
38427;SDS011;24211;49.980;19.776;2023-07-28T06:21:38;2.70;;;1.10;;
38427;SDS011;24211;49.980;19.776;2023-07-28T06:24:05;1.90;;;1.00;;
38427;SDS011;24211;49.980;19.776;2023-07-28T06:26:32;2.47;;;1.20;;
38427;SDS011;24211;49.980;19.776;2023-07-28T06:29:00;3.65;;;1.13;;
38427;SDS011;24211;49.980;19.776;2023-07-28T06:31:27;2.15;;;1.10;;
38427;SDS011;24211;49.980;19.776;2023-07-28T06:33:57;2.33;;;1.13;;
38427;SDS011;24211;49.980;19.776;2023-07-28T06:36:25;3.13;;;1.33;;
38427;SDS011;24211;49.980;19.776;2023-07-28T06:38:57;1.73;;;1.00;;
38427;SDS011;24211;49.980;19.776;2023-07-28T06:41:25;2.53;;;1.10;;
38427;SDS011;24211;49.980;19.776;2023-07-28T06:44:00;3.63;;;1.17;;
38427;SDS011;24211;49.980;19.776;2023-07-28T06:46:46;2.60;;;1.20;;
38427;SDS011;24211;49.980;19.776;2023-07-28T06:49:15;2.50;;;1.00;;
38427;SDS011;24211;49.980;19.776;2023-07-28T06:51:43;2.13;;;1.08;;
38427;SDS011;24211;49.980;19.776;2023-07-28T06:54:18;2.28;;;1.25;;
38427;SDS011;24211;49.980;19.776;2023-07-28T06:56:51;1.80;;;0.80;;
38427;SDS011;24211;49.980;19.776;2023-07-28T06:59:19;2.38;;;1.00;;
38427;SDS011;24211;49.980;19.776;2023-07-28T07:01:53;2.17;;;1.10;;
38427;SDS011;24211;49.980;19.776;2023-07-28T07:04:36;2.17;;;1.10;;
38427;SDS011;24211;49.980;19.776;2023-07-28T07:07:03;2.28;;;1.13;;
38427;SDS011;24211;49.980;19.776;2023-07-28T07:09:31;2.63;;;1.30;;
38427;SDS011;24211;49.980;19.776;2023-07-28T07:12:00;2.83;;;1.20;;
38427;SDS011;24211;49.980;19.776;2023-07-28T07:14:50;2.10;;;1.20;;
38427;SDS011;24211;49.980;19.776;2023-07-28T07:17:37;2.15;;;1.15;;
38427;SDS011;24211;49.980;19.776;2023-07-28T07:20:05;2.90;;;1.30;;
38427;SDS011;24211;49.980;19.776;2023-07-28T07:22:33;2.90;;;1.30;;
38427;SDS011;24211;49.980;19.776;2023-07-28T07:25:02;3.13;;;1.35;;
38427;SDS011;24211;49.980;19.776;2023-07-28T07:27:37;2.05;;;1.15;;
38427;SDS011;24211;49.980;19.776;2023-07-28T07:30:05;3.13;;;1.25;;
38427;SDS011;24211;49.980;19.776;2023-07-28T07:32:35;2.60;;;1.20;;
38427;SDS011;24211;49.980;19.776;2023-07-28T07:35:04;2.33;;;1.08;;
38427;SDS011;24211;49.980;19.776;2023-07-28T07:37:32;2.80;;;1.17;;
38427;SDS011;24211;49.980;19.776;2023-07-28T07:40:02;2.55;;;1.10;;
38427;SDS011;24211;49.980;19.776;2023-07-28T07:42:40;2.63;;;1.20;;
38427;SDS011;24211;49.980;19.776;2023-07-28T07:45:18;2.42;;;1.27;;
38427;SDS011;24211;49.980;19.776;2023-07-28T07:47:46;2.42;;;1.20;;
38427;SDS011;24211;49.980;19.776;2023-07-28T07:50:15;2.35;;;1.10;;
38427;SDS011;24211;49.980;19.776;2023-07-28T07:52:42;1.67;;;0.93;;
38427;SDS011;24211;49.980;19.776;2023-07-28T07:55:10;2.38;;;1.13;;
38427;SDS011;24211;49.980;19.776;2023-07-28T07:57:40;2.20;;;1.02;;
38427;SDS011;24211;49.980;19.776;2023-07-28T08:00:10;2.15;;;1.10;;
38427;SDS011;24211;49.980;19.776;2023-07-28T08:02:39;3.42;;;1.30;;
38427;SDS011;24211;49.980;19.776;2023-07-28T08:05:08;2.55;;;1.02;;
38427;SDS011;24211;49.980;19.776;2023-07-28T08:07:36;2.40;;;1.00;;
38427;SDS011;24211;49.980;19.776;2023-07-28T08:10:07;1.98;;;0.93;;
38427;SDS011;24211;49.980;19.776;2023-07-28T08:12:38;2.28;;;1.10;;
38427;SDS011;24211;49.980;19.776;2023-07-28T08:15:23;2.13;;;1.10;;
38427;SDS011;24211;49.980;19.776;2023-07-28T08:17:50;2.92;;;1.20;;
38427;SDS011;24211;49.980;19.776;2023-07-28T08:20:18;2.10;;;1.17;;
38427;SDS011;24211;49.980;19.776;2023-07-28T08:22:46;2.60;;;1.10;;
38427;SDS011;24211;49.980;19.776;2023-07-28T08:25:13;1.88;;;0.90;;
38427;SDS011;24211;49.980;19.776;2023-07-28T08:27:43;2.47;;;1.10;;
38427;SDS011;24211;49.980;19.776;2023-07-28T08:30:14;2.08;;;1.10;;
38427;SDS011;24211;49.980;19.776;2023-07-28T08:32:42;2.00;;;1.00;;
38427;SDS011;24211;49.980;19.776;2023-07-28T08:35:10;2.63;;;1.15;;
38427;SDS011;24211;49.980;19.776;2023-07-28T08:37:37;2.03;;;1.00;;
38427;SDS011;24211;49.980;19.776;2023-07-28T08:40:05;1.65;;;1.00;;
38427;SDS011;24211;49.980;19.776;2023-07-28T08:42:36;1.95;;;1.00;;
38427;SDS011;24211;49.980;19.776;2023-07-28T08:45:08;1.80;;;0.93;;
38427;SDS011;24211;49.980;19.776;2023-07-28T08:47:36;2.22;;;1.10;;
38427;SDS011;24211;49.980;19.776;2023-07-28T08:50:04;1.70;;;1.00;;
38427;SDS011;24211;49.980;19.776;2023-07-28T08:52:32;3.38;;;1.00;;
38427;SDS011;24211;49.980;19.776;2023-07-28T08:55:01;1.75;;;0.90;;
38427;SDS011;24211;49.980;19.776;2023-07-28T08:57:29;1.88;;;1.00;;
38427;SDS011;24211;49.980;19.776;2023-07-28T08:59:56;3.33;;;1.00;;
38427;SDS011;24211;49.980;19.776;2023-07-28T09:02:24;2.22;;;1.15;;
38427;SDS011;24211;49.980;19.776;2023-07-28T09:04:52;2.25;;;1.13;;
38427;SDS011;24211;49.980;19.776;2023-07-28T09:07:19;3.08;;;1.02;;
38427;SDS011;24211;49.980;19.776;2023-07-28T09:09:47;1.92;;;1.00;;
38427;SDS011;24211;49.980;19.776;2023-07-28T09:12:14;2.20;;;1.10;;
38427;SDS011;24211;49.980;19.776;2023-07-28T09:14:42;2.40;;;1.13;;
38427;SDS011;24211;49.980;19.776;2023-07-28T09:17:10;2.00;;;1.10;;
38427;SDS011;24211;49.980;19.776;2023-07-28T09:19:50;2.42;;;1.02;;
38427;SDS011;24211;49.980;19.776;2023-07-28T09:22:23;2.10;;;1.10;;
38427;SDS011;24211;49.980;19.776;2023-07-28T09:24:51;2.65;;;1.17;;
38427;SDS011;24211;49.980;19.776;2023-07-28T09:27:25;2.30;;;0.88;;
38427;SDS011;24211;49.980;19.776;2023-07-28T09:29:55;2.10;;;0.95;;
38427;SDS011;24211;49.980;19.776;2023-07-28T09:32:26;2.55;;;1.02;;
38427;SDS011;24211;49.980;19.776;2023-07-28T09:35:11;1.73;;;0.98;;
38427;SDS011;24211;49.980;19.776;2023-07-28T09:37:40;1.92;;;0.93;;
38427;SDS011;24211;49.980;19.776;2023-07-28T09:40:22;1.98;;;0.90;;
38427;SDS011;24211;49.980;19.776;2023-07-28T09:42:57;1.85;;;1.00;;
38427;SDS011;24211;49.980;19.776;2023-07-28T09:45:26;2.03;;;1.00;;
38427;SDS011;24211;49.980;19.776;2023-07-28T09:48:05;2.35;;;1.00;;
38427;SDS011;24211;49.980;19.776;2023-07-28T09:50:37;1.70;;;0.88;;
38427;SDS011;24211;49.980;19.776;2023-07-28T09:53:08;2.92;;;1.15;;
38427;SDS011;24211;49.980;19.776;2023-07-28T09:55:38;2.95;;;1.02;;
38427;SDS011;24211;49.980;19.776;2023-07-28T09:58:09;2.65;;;1.10;;
38427;SDS011;24211;49.980;19.776;2023-07-28T10:00:40;2.38;;;1.20;;
38427;SDS011;24211;49.980;19.776;2023-07-28T10:03:09;2.05;;;1.10;;
38427;SDS011;24211;49.980;19.776;2023-07-28T10:05:38;2.30;;;1.20;;
38427;SDS011;24211;49.980;19.776;2023-07-28T10:08:23;3.75;;;1.50;;
38427;SDS011;24211;49.980;19.776;2023-07-28T10:10:53;2.60;;;1.35;;
38427;SDS011;24211;49.980;19.776;2023-07-28T10:13:21;2.38;;;1.00;;
38427;SDS011;24211;49.980;19.776;2023-07-28T10:15:49;2.80;;;1.20;;
38427;SDS011;24211;49.980;19.776;2023-07-28T10:18:25;3.17;;;1.30;;
38427;SDS011;24211;49.980;19.776;2023-07-28T10:20:53;2.78;;;1.35;;
38427;SDS011;24211;49.980;19.776;2023-07-28T10:23:21;2.33;;;1.13;;
38427;SDS011;24211;49.980;19.776;2023-07-28T10:25:56;1.80;;;1.20;;
38427;SDS011;24211;49.980;19.776;2023-07-28T10:28:39;1.95;;;1.15;;
38427;SDS011;24211;49.980;19.776;2023-07-28T10:31:29;2.70;;;1.10;;
38427;SDS011;24211;49.980;19.776;2023-07-28T10:34:06;2.08;;;1.10;;
38427;SDS011;24211;49.980;19.776;2023-07-28T10:36:34;2.20;;;1.13;;
38427;SDS011;24211;49.980;19.776;2023-07-28T10:41:31;2.45;;;1.00;;
38427;SDS011;24211;49.980;19.776;2023-07-28T10:44:02;1.88;;;0.93;;
38427;SDS011;24211;49.980;19.776;2023-07-28T10:46:30;2.42;;;0.90;;
38427;SDS011;24211;49.980;19.776;2023-07-28T10:49:04;1.35;;;0.73;;
38427;SDS011;24211;49.980;19.776;2023-07-28T10:51:32;2.15;;;0.82;;
38427;SDS011;24211;49.980;19.776;2023-07-28T10:54:02;2.35;;;0.95;;
38427;SDS011;24211;49.980;19.776;2023-07-28T10:56:30;1.40;;;0.70;;
38427;SDS011;24211;49.980;19.776;2023-07-28T10:58:57;2.17;;;0.75;;
38427;SDS011;24211;49.980;19.776;2023-07-28T11:01:31;1.63;;;0.80;;
38427;SDS011;24211;49.980;19.776;2023-07-28T11:04:11;1.23;;;0.65;;
38427;SDS011;24211;49.980;19.776;2023-07-28T11:06:52;1.10;;;0.70;;
38427;SDS011;24211;49.980;19.776;2023-07-28T11:09:22;1.27;;;0.60;;
38427;SDS011;24211;49.980;19.776;2023-07-28T11:11:51;0.67;;;0.47;;
38427;SDS011;24211;49.980;19.776;2023-07-28T11:14:18;1.27;;;0.52;;
38427;SDS011;24211;49.980;19.776;2023-07-28T11:16:49;4.40;;;0.70;;
38427;SDS011;24211;49.980;19.776;2023-07-28T11:19:17;1.33;;;0.55;;
38427;SDS011;24211;49.980;19.776;2023-07-28T11:21:54;0.70;;;0.43;;
38427;SDS011;24211;49.980;19.776;2023-07-28T11:24:22;0.70;;;0.40;;
38427;SDS011;24211;49.980;19.776;2023-07-28T11:26:50;0.63;;;0.35;;
38427;SDS011;24211;49.980;19.776;2023-07-28T11:29:18;0.52;;;0.35;;
38427;SDS011;24211;49.980;19.776;2023-07-28T11:31:47;0.50;;;0.30;;
38427;SDS011;24211;49.980;19.776;2023-07-28T11:34:15;0.68;;;0.30;;
38427;SDS011;24211;49.980;19.776;2023-07-28T11:36:45;0.47;;;0.32;;
38427;SDS011;24211;49.980;19.776;2023-07-28T11:39:12;0.90;;;0.50;;
38427;SDS011;24211;49.980;19.776;2023-07-28T11:41:41;0.57;;;0.40;;
38427;SDS011;24211;49.980;19.776;2023-07-28T11:44:11;1.40;;;0.40;;
38427;SDS011;24211;49.980;19.776;2023-07-28T11:46:40;2.40;;;0.40;;
38427;SDS011;24211;49.980;19.776;2023-07-28T11:51:55;1.10;;;0.40;;
38427;SDS011;24211;49.980;19.776;2023-07-28T11:56:56;0.45;;;0.30;;
38427;SDS011;24211;49.980;19.776;2023-07-28T11:59:24;0.68;;;0.40;;
38427;SDS011;24211;49.980;19.776;2023-07-28T12:04:37;0.82;;;0.30;;
38427;SDS011;24211;49.980;19.776;2023-07-28T12:07:13;1.63;;;0.40;;
38427;SDS011;24211;49.980;19.776;2023-07-28T12:09:49;0.80;;;0.47;;
38427;SDS011;24211;49.980;19.776;2023-07-28T12:12:30;0.93;;;0.50;;
38427;SDS011;24211;49.980;19.776;2023-07-28T12:15:23;0.70;;;0.43;;
38427;SDS011;24211;49.980;19.776;2023-07-28T12:18:12;0.70;;;0.40;;
38427;SDS011;24211;49.980;19.776;2023-07-28T12:20:45;1.13;;;0.50;;
38427;SDS011;24211;49.980;19.776;2023-07-28T12:23:19;1.00;;;0.40;;
38427;SDS011;24211;49.980;19.776;2023-07-28T12:25:51;1.17;;;0.47;;
38427;SDS011;24211;49.980;19.776;2023-07-28T12:28:22;0.70;;;0.40;;
38427;SDS011;24211;49.980;19.776;2023-07-28T12:30:49;0.73;;;0.35;;
38427;SDS011;24211;49.980;19.776;2023-07-28T12:33:19;0.55;;;0.40;;
38427;SDS011;24211;49.980;19.776;2023-07-28T12:35:48;1.17;;;0.50;;
38427;SDS011;24211;49.980;19.776;2023-07-28T12:38:17;0.90;;;0.50;;
38427;SDS011;24211;49.980;19.776;2023-07-28T12:40:47;0.60;;;0.40;;
38427;SDS011;24211;49.980;19.776;2023-07-28T12:43:17;0.93;;;0.57;;
38427;SDS011;24211;49.980;19.776;2023-07-28T12:45:47;0.82;;;0.40;;
38427;SDS011;24211;49.980;19.776;2023-07-28T12:48:17;0.80;;;0.40;;
38427;SDS011;24211;49.980;19.776;2023-07-28T12:50:47;1.50;;;0.50;;
38427;SDS011;24211;49.980;19.776;2023-07-28T12:53:15;0.55;;;0.40;;
38427;SDS011;24211;49.980;19.776;2023-07-28T12:55:49;1.02;;;0.60;;
38427;SDS011;24211;49.980;19.776;2023-07-28T12:58:19;1.17;;;0.60;;
38427;SDS011;24211;49.980;19.776;2023-07-28T13:00:50;1.42;;;0.60;;
38427;SDS011;24211;49.980;19.776;2023-07-28T13:03:19;1.45;;;0.50;;
38427;SDS011;24211;49.980;19.776;2023-07-28T13:05:47;1.35;;;0.45;;
38427;SDS011;24211;49.980;19.776;2023-07-28T13:08:15;1.63;;;0.55;;
38427;SDS011;24211;49.980;19.776;2023-07-28T13:10:43;0.90;;;0.35;;
38427;SDS011;24211;49.980;19.776;2023-07-28T13:13:15;0.70;;;0.40;;
38427;SDS011;24211;49.980;19.776;2023-07-28T13:15:43;1.00;;;0.43;;
38427;SDS011;24211;49.980;19.776;2023-07-28T13:18:11;1.00;;;0.40;;
38427;SDS011;24211;49.980;19.776;2023-07-28T13:20:39;1.13;;;0.30;;
38427;SDS011;24211;49.980;19.776;2023-07-28T13:23:06;1.20;;;0.40;;
38427;SDS011;24211;49.980;19.776;2023-07-28T13:25:33;0.57;;;0.30;;
38427;SDS011;24211;49.980;19.776;2023-07-28T13:28:01;0.55;;;0.30;;
38427;SDS011;24211;49.980;19.776;2023-07-28T13:30:28;0.40;;;0.20;;
38427;SDS011;24211;49.980;19.776;2023-07-28T13:32:55;0.75;;;0.30;;
38427;SDS011;24211;49.980;19.776;2023-07-28T13:35:23;0.90;;;0.20;;
38427;SDS011;24211;49.980;19.776;2023-07-28T13:37:51;0.65;;;0.30;;
38427;SDS011;24211;49.980;19.776;2023-07-28T13:40:19;1.38;;;0.30;;
38427;SDS011;24211;49.980;19.776;2023-07-28T13:42:46;0.65;;;0.22;;
38427;SDS011;24211;49.980;19.776;2023-07-28T13:45:14;0.60;;;0.20;;
38427;SDS011;24211;49.980;19.776;2023-07-28T13:47:41;1.77;;;0.20;;
38427;SDS011;24211;49.980;19.776;2023-07-28T13:50:08;0.45;;;0.30;;
38427;SDS011;24211;49.980;19.776;2023-07-28T13:52:36;0.82;;;0.20;;
38427;SDS011;24211;49.980;19.776;2023-07-28T13:55:03;0.60;;;0.30;;
38427;SDS011;24211;49.980;19.776;2023-07-28T13:57:34;1.70;;;0.30;;
38427;SDS011;24211;49.980;19.776;2023-07-28T14:00:02;1.50;;;0.30;;
38427;SDS011;24211;49.980;19.776;2023-07-28T14:02:30;0.40;;;0.30;;
38427;SDS011;24211;49.980;19.776;2023-07-28T14:04:58;0.80;;;0.35;;
38427;SDS011;24211;49.980;19.776;2023-07-28T14:07:26;0.55;;;0.40;;
38427;SDS011;24211;49.980;19.776;2023-07-28T14:09:54;0.80;;;0.40;;
38427;SDS011;24211;49.980;19.776;2023-07-28T14:12:21;0.60;;;0.30;;
38427;SDS011;24211;49.980;19.776;2023-07-28T14:14:48;1.63;;;0.50;;
38427;SDS011;24211;49.980;19.776;2023-07-28T14:17:18;1.10;;;0.50;;
38427;SDS011;24211;49.980;19.776;2023-07-28T14:19:45;0.55;;;0.30;;
38427;SDS011;24211;49.980;19.776;2023-07-28T14:22:13;0.98;;;0.40;;
38427;SDS011;24211;49.980;19.776;2023-07-28T14:24:40;1.00;;;0.40;;
38427;SDS011;24211;49.980;19.776;2023-07-28T14:27:07;0.70;;;0.40;;
38427;SDS011;24211;49.980;19.776;2023-07-28T14:29:34;0.47;;;0.30;;
38427;SDS011;24211;49.980;19.776;2023-07-28T14:32:02;0.73;;;0.35;;
38427;SDS011;24211;49.980;19.776;2023-07-28T14:34:29;0.88;;;0.50;;
38427;SDS011;24211;49.980;19.776;2023-07-28T14:36:57;0.98;;;0.30;;
38427;SDS011;24211;49.980;19.776;2023-07-28T14:39:29;1.95;;;0.50;;
38427;SDS011;24211;49.980;19.776;2023-07-28T14:41:57;0.60;;;0.40;;
38427;SDS011;24211;49.980;19.776;2023-07-28T14:44:24;1.20;;;0.50;;
38427;SDS011;24211;49.980;19.776;2023-07-28T14:46:51;0.90;;;0.40;;
38427;SDS011;24211;49.980;19.776;2023-07-28T14:49:19;0.50;;;0.30;;
38427;SDS011;24211;49.980;19.776;2023-07-28T14:51:49;1.42;;;0.40;;
38427;SDS011;24211;49.980;19.776;2023-07-28T14:54:18;0.40;;;0.30;;
38427;SDS011;24211;49.980;19.776;2023-07-28T14:56:45;0.70;;;0.40;;
38427;SDS011;24211;49.980;19.776;2023-07-28T14:59:16;1.07;;;0.50;;
38427;SDS011;24211;49.980;19.776;2023-07-28T15:01:44;0.73;;;0.40;;
38427;SDS011;24211;49.980;19.776;2023-07-28T15:04:13;0.95;;;0.50;;
38427;SDS011;24211;49.980;19.776;2023-07-28T15:06:44;0.60;;;0.40;;
38427;SDS011;24211;49.980;19.776;2023-07-28T15:09:11;2.05;;;0.40;;